createdAt,value
2022-08-05T00:00:21.980Z,100865.34
2022-08-05T00:02:52.416Z,100892.81
2022-08-05T00:06:02.133Z,100896.72
2022-08-05T00:08:32.827Z,100893.53
2022-08-05T00:11:23.932Z,100906.22
2022-08-05T00:13:57.803Z,100865.41
2022-08-05T00:16:35.443Z,100891.00
2022-08-05T00:19:07.548Z,100915.34
2022-08-05T00:21:37.483Z,100908.34
2022-08-05T00:24:16.164Z,100890.25
2022-08-05T00:26:50.865Z,100833.84
2022-08-05T00:29:22.714Z,100874.88
2022-08-05T00:32:12.634Z,100870.91
2022-08-05T00:35:04.759Z,100851.94
2022-08-05T00:37:35.856Z,100802.53
2022-08-05T00:40:29.345Z,100874.31
2022-08-05T00:43:00.704Z,100869.53
2022-08-05T00:45:38.547Z,100867.69
2022-08-05T00:48:10.756Z,100876.09
2022-08-05T00:50:44.165Z,100864.91
2022-08-05T00:54:00.820Z,100848.75
2022-08-05T00:56:09.250Z,100815.47
2022-08-05T00:58:42.406Z,100850.97
2022-08-05T01:01:16.232Z,100792.88
2022-08-05T01:04:14.175Z,100864.88
2022-08-05T01:06:48.525Z,100834.81
2022-08-05T01:09:19.973Z,100843.13
2022-08-05T01:11:56.364Z,100818.41
2022-08-05T01:14:33.385Z,100770.66
2022-08-05T01:17:07.827Z,100794.84
2022-08-05T01:20:00.754Z,100843.34
2022-08-05T01:22:46.955Z,100867.34
2022-08-05T01:25:53.204Z,100803.31
2022-08-05T01:28:39.511Z,100884.59
2022-08-05T01:31:13.619Z,100922.84
2022-08-05T01:33:57.463Z,100850.06
2022-08-05T01:36:34.093Z,100805.25
2022-08-05T01:39:04.921Z,100707.22
2022-08-05T01:41:40.331Z,100698.59
2022-08-05T01:44:18.241Z,100696.44
2022-08-05T01:46:49.074Z,100726.63
2022-08-05T01:49:25.921Z,100694.31
2022-08-05T01:52:17.882Z,100750.94
2022-08-05T01:54:52.753Z,100774.84
2022-08-05T01:58:10.297Z,100767.63
2022-08-05T02:00:30.511Z,100763.94
2022-08-05T02:03:06.732Z,100692.75
2022-08-05T02:05:59.800Z,100740.66
2022-08-05T02:08:33.368Z,100713.53
2022-08-05T02:11:11.758Z,100681.34
2022-08-05T02:13:53.674Z,100722.31
2022-08-05T02:16:29.981Z,100707.97
2022-08-05T02:19:07.232Z,100662.69
2022-08-05T02:21:46.653Z,100732.47
2022-08-05T02:24:23.454Z,100692.28
2022-08-05T02:26:57.809Z,100726.38
2022-08-05T02:29:59.724Z,100769.31
2022-08-05T02:32:30.564Z,100772.72
2022-08-05T02:35:13.685Z,100775.25
2022-08-05T02:37:47.794Z,100782.91
2022-08-05T02:40:26.121Z,100789.09
2022-08-05T02:42:59.164Z,100801.16
2022-08-05T02:45:51.520Z,100797.94
2022-08-05T02:48:29.517Z,100808.16
2022-08-05T02:51:01.453Z,100791.03
2022-08-05T02:53:39.480Z,100796.22
2022-08-05T02:56:16.098Z,100790.31
2022-08-05T02:58:52.643Z,100783.69
2022-08-05T03:01:26.986Z,100802.84
2022-08-05T03:04:11.988Z,100779.56
2022-08-05T03:06:55.815Z,100800.53
2022-08-05T03:09:38.181Z,100792.91
2022-08-05T03:12:09.726Z,100787.75
2022-08-05T03:14:46.117Z,100804.84
2022-08-05T03:17:17.776Z,100766.22
2022-08-05T03:19:52.541Z,100796.78
2022-08-05T03:22:31.888Z,100806.19
2022-08-05T03:25:34.014Z,100821.44
2022-08-05T03:27:59.980Z,100820.44
2022-08-05T03:30:34.217Z,100799.72
2022-08-05T03:33:05.945Z,100815.94
2022-08-05T03:35:40.945Z,100819.38
2022-08-05T03:38:14.412Z,100811.69
2022-08-05T03:40:45.158Z,100816.00
2022-08-05T03:44:08.433Z,100833.13
2022-08-05T03:46:08.443Z,100835.72
2022-08-05T03:48:38.161Z,100850.38
2022-08-05T03:52:35.120Z,100852.88
2022-08-05T03:55:51.092Z,100846.06
2022-08-05T03:57:02.362Z,100853.78
2022-08-05T03:59:54.982Z,100869.19
2022-08-05T04:02:39.140Z,100853.66
2022-08-05T04:05:19.736Z,100836.69
2022-08-05T04:07:57.978Z,100848.78
2022-08-05T04:10:37.136Z,100851.53
2022-08-05T04:13:09.176Z,100840.94
2022-08-05T04:15:39.455Z,100865.25
2022-08-05T04:18:29.542Z,100868.81
2022-08-05T04:21:00.876Z,100877.34
2022-08-05T04:23:58.368Z,100816.69
2022-08-05T04:26:23.669Z,100859.59
2022-08-05T04:28:53.443Z,100872.53
2022-08-05T04:31:23.513Z,100857.88
2022-08-05T04:34:31.522Z,100860.28
2022-08-05T04:36:50.052Z,100873.22
2022-08-05T04:39:23.554Z,100868.72
2022-08-05T04:41:53.783Z,100842.09
2022-08-05T04:44:30.111Z,100856.53
2022-08-05T04:47:09.589Z,100857.34
2022-08-05T04:50:01.413Z,100811.91
2022-08-05T04:52:33.362Z,100858.03
2022-08-05T04:55:14.981Z,100853.63
2022-08-05T04:57:51.664Z,100853.81
2022-08-05T05:00:24.321Z,100861.56
2022-08-05T05:02:54.492Z,100853.81
2022-08-05T05:05:28.585Z,100842.66
2022-08-05T05:08:03.301Z,100838.53
2022-08-05T05:10:42.240Z,100843.69
2022-08-05T05:13:25.792Z,100851.41
2022-08-05T05:16:05.913Z,100847.16
2022-08-05T05:18:37.928Z,100847.34
2022-08-05T05:21:07.927Z,100854.19
2022-08-05T05:24:04.100Z,100871.19
2022-08-05T05:26:33.883Z,100871.94
2022-08-05T05:29:14.313Z,100851.31
2022-08-05T05:31:46.483Z,100855.47
2022-08-05T05:34:21.168Z,100886.22
2022-08-05T05:36:53.682Z,100907.84
2022-08-05T05:39:24.943Z,100908.66
2022-08-05T05:42:04.077Z,100883.69
2022-08-05T05:44:37.543Z,100873.47
2022-08-05T05:47:21.590Z,100866.56
2022-08-05T05:50:01.450Z,100848.69
2022-08-05T05:52:34.733Z,100818.91
2022-08-05T05:55:13.887Z,100829.19
2022-08-05T05:57:52.122Z,100840.06
2022-08-05T06:00:31.490Z,100858.22
2022-08-05T06:03:39.695Z,100822.22
2022-08-05T06:05:55.669Z,100844.47
2022-08-05T06:08:32.253Z,100861.47
2022-08-05T06:11:04.050Z,100839.88
2022-08-05T06:13:40.531Z,100859.69
2022-08-05T06:16:30.493Z,100849.50
2022-08-05T06:19:05.773Z,100829.13
2022-08-05T06:21:38.842Z,100820.56
2022-08-05T06:24:14.740Z,100839.56
2022-08-05T06:26:51.571Z,100841.66
2022-08-05T06:29:48.914Z,100874.34
2022-08-05T06:32:21.468Z,100879.47
2022-08-05T06:34:58.518Z,100888.91
2022-08-05T06:37:57.728Z,100910.56
2022-08-05T06:40:27.884Z,100903.97
2022-08-05T06:43:02.326Z,100866.56
2022-08-05T06:45:44.981Z,100934.22
2022-08-05T06:48:52.920Z,100890.84
2022-08-05T06:51:26.738Z,100956.81
2022-08-05T06:54:01.926Z,100961.19
2022-08-05T06:56:34.319Z,100948.44
2022-08-05T06:59:08.323Z,100893.00
2022-08-05T07:01:47.453Z,100911.16
2022-08-05T07:04:23.977Z,100913.75
2022-08-05T07:06:57.119Z,100919.09
2022-08-05T07:09:32.192Z,100874.50
2022-08-05T07:12:02.622Z,100890.59
2022-08-05T07:14:46.109Z,100887.22
2022-08-05T07:18:09.381Z,100852.09
2022-08-05T07:20:32.301Z,100899.97
2022-08-05T07:23:01.495Z,100913.81
2022-08-05T07:25:55.229Z,100906.81
2022-08-05T07:28:26.403Z,100884.38
2022-08-05T07:30:56.431Z,100868.00
2022-08-05T07:33:35.222Z,100858.47
2022-08-05T07:36:20.814Z,100825.09
2022-08-05T07:38:55.017Z,100825.00
2022-08-05T07:42:13.252Z,100889.13
2022-08-05T07:44:19.124Z,100839.34
2022-08-05T07:46:51.726Z,100834.31
2022-08-05T07:49:24.402Z,100890.56
2022-08-05T07:51:55.347Z,100880.34
2022-08-05T07:54:31.767Z,100889.13
2022-08-05T07:57:22.579Z,100907.09
2022-08-05T07:59:55.068Z,100899.25
2022-08-05T08:02:30.803Z,100894.81
2022-08-05T08:05:04.259Z,100907.66
2022-08-05T08:07:39.459Z,100886.31
2022-08-05T08:10:24.325Z,100917.81
2022-08-05T08:12:58.494Z,100919.44
2022-08-05T08:16:33.469Z,100910.75
2022-08-05T08:18:21.025Z,100901.47
2022-08-05T08:21:03.094Z,100930.56
2022-08-05T08:24:01.457Z,100929.09
2022-08-05T08:26:27.057Z,100930.38
2022-08-05T08:29:02.243Z,100950.25
2022-08-05T08:31:52.234Z,100955.41
2022-08-05T08:34:30.157Z,100948.50
2022-08-05T08:37:05.477Z,100942.41
2022-08-05T08:39:37.607Z,100930.38
2022-08-05T08:42:33.627Z,100956.88
2022-08-05T08:45:25.162Z,100958.72
2022-08-05T08:48:07.415Z,100959.41
2022-08-05T08:51:03.334Z,100949.88
2022-08-05T08:53:44.970Z,100932.47
2022-08-05T08:56:15.228Z,100953.69
2022-08-05T08:58:47.932Z,100965.63
2022-08-05T09:01:19.669Z,100956.28
2022-08-05T09:03:55.630Z,100960.66
2022-08-05T09:06:30.907Z,100960.59
2022-08-05T09:09:04.786Z,100895.50
2022-08-05T09:11:53.760Z,100962.19
2022-08-05T09:14:57.714Z,100957.91
2022-08-05T09:17:40.891Z,100949.25
2022-08-05T09:20:09.808Z,100951.00
2022-08-05T09:23:19.810Z,100959.50
2022-08-05T09:26:03.274Z,100965.53
2022-08-05T09:28:35.926Z,100963.34
2022-08-05T09:31:18.228Z,100951.31
2022-08-05T09:34:01.804Z,100957.44
2022-08-05T09:36:55.082Z,100915.66
2022-08-05T09:39:44.971Z,100938.63
2022-08-05T09:42:24.452Z,100904.38
2022-08-05T09:45:17.260Z,100960.97
2022-08-05T09:47:55.902Z,100966.38
2022-08-05T09:50:44.086Z,100988.03
2022-08-05T09:53:26.166Z,100957.16
2022-08-05T09:56:13.402Z,101008.47
2022-08-05T09:58:59.096Z,101031.56
2022-08-05T10:01:32.578Z,101065.03
2022-08-05T10:04:10.403Z,100975.28
2022-08-05T10:06:55.059Z,101010.19
2022-08-05T10:09:29.887Z,100945.88
2022-08-05T10:12:30.530Z,101017.91
2022-08-05T10:15:21.792Z,101066.19
2022-08-05T10:18:16.926Z,101079.69
2022-08-05T10:20:49.568Z,101011.06
2022-08-05T10:23:55.591Z,100998.25
2022-08-05T10:26:14.458Z,101020.69
2022-08-05T10:28:46.582Z,101080.72
2022-08-05T10:32:55.078Z,100990.00
2022-08-05T10:34:10.804Z,101068.16
2022-08-05T10:36:44.517Z,101052.78
2022-08-05T10:39:25.170Z,100984.13
2022-08-05T10:42:15.609Z,101072.63
2022-08-05T10:44:49.594Z,101039.22
2022-08-05T10:47:25.918Z,101027.13
2022-08-05T10:50:20.268Z,101033.09
2022-08-05T10:52:58.748Z,101041.66
2022-08-05T10:56:03.832Z,101002.16
2022-08-05T10:58:36.037Z,101040.75
2022-08-05T11:01:15.129Z,100982.44
2022-08-05T11:04:06.630Z,101095.34
2022-08-05T11:06:39.077Z,101069.44
2022-08-05T11:09:16.873Z,100990.47
2022-08-05T11:11:52.725Z,101091.50
2022-08-05T11:15:12.176Z,101089.78
2022-08-05T11:18:07.343Z,101112.25
2022-08-05T11:20:44.585Z,101093.56
2022-08-05T11:24:03.783Z,101129.78
2022-08-05T11:26:32.496Z,101105.91
2022-08-05T11:29:13.805Z,101147.09
2022-08-05T11:31:56.929Z,101141.91
2022-08-05T11:34:51.393Z,101141.69
2022-08-05T11:38:29.051Z,101119.53
2022-08-05T11:41:35.103Z,101147.97
2022-08-05T11:44:07.492Z,101149.91
2022-08-05T11:47:10.224Z,101145.66
2022-08-05T11:49:34.054Z,101152.56
2022-08-05T11:52:11.084Z,101095.00
2022-08-05T11:54:43.636Z,101157.69
2022-08-05T11:57:25.467Z,101153.47
2022-08-05T12:00:28.954Z,101117.56
2022-08-05T12:03:01.089Z,101127.81
2022-08-05T12:05:39.807Z,101177.34
2022-08-05T12:08:11.748Z,101175.47
2022-08-05T12:10:52.723Z,101171.28
2022-08-05T12:13:48.048Z,101177.19
2022-08-05T12:16:26.984Z,101184.00
2022-08-05T12:18:57.249Z,101203.63
2022-08-05T12:21:30.624Z,101173.38
2022-08-05T12:24:04.855Z,101200.91
2022-08-05T12:26:36.561Z,101198.41
2022-08-05T12:29:15.883Z,101203.84
2022-08-05T12:31:53.639Z,101188.38
2022-08-05T12:34:28.443Z,101212.47
2022-08-05T12:36:59.926Z,101214.94
2022-08-05T12:39:34.470Z,101213.94
2022-08-05T12:42:14.332Z,101192.13
2022-08-05T12:44:48.625Z,101218.34
2022-08-05T12:47:30.955Z,101209.38
2022-08-05T12:50:06.231Z,101195.41
2022-08-05T12:52:42.252Z,101180.06
2022-08-05T12:55:23.619Z,101200.75
2022-08-05T12:58:49.788Z,101200.81
2022-08-05T13:02:02.287Z,101191.38
2022-08-05T13:03:43.283Z,101216.06
2022-08-05T13:06:19.954Z,101211.38
2022-08-05T13:08:52.178Z,101206.19
2022-08-05T13:11:46.969Z,101215.59
2022-08-05T13:14:19.391Z,101206.16
2022-08-05T13:16:56.420Z,101218.97
2022-08-05T13:19:51.916Z,101218.13
2022-08-05T13:22:29.277Z,101227.81
2022-08-05T13:25:05.770Z,101201.94
2022-08-05T13:27:41.513Z,101229.94
2022-08-05T13:30:34.810Z,101221.84
2022-08-05T13:33:06.545Z,101243.50
2022-08-05T13:35:47.176Z,101216.84
2022-08-05T13:38:30.296Z,101224.44
2022-08-05T13:41:01.608Z,101230.28
2022-08-05T13:43:45.446Z,101233.53
2022-08-05T13:46:38.005Z,101212.72
2022-08-05T13:49:16.039Z,101224.91
2022-08-05T13:51:47.019Z,101247.22
2022-08-05T13:54:21.178Z,101240.06
2022-08-05T13:56:56.132Z,101248.88
2022-08-05T13:59:27.001Z,101242.97
2022-08-05T14:02:00.507Z,101250.50
2022-08-05T14:04:50.085Z,101254.63
2022-08-05T14:07:55.363Z,101259.72
2022-08-05T14:10:18.849Z,101259.84
2022-08-05T14:12:54.505Z,101264.41
2022-08-05T14:16:06.161Z,101264.69
2022-08-05T14:18:18.039Z,101262.91
2022-08-05T14:20:52.921Z,101276.91
2022-08-05T14:23:26.447Z,101253.13
2022-08-05T14:25:59.723Z,101265.16
2022-08-05T14:28:31.794Z,101275.38
2022-08-05T14:31:02.496Z,101280.78
2022-08-05T14:33:59.249Z,101277.34
2022-08-05T14:36:26.101Z,101274.78
2022-08-05T14:38:56.973Z,101277.75
2022-08-05T14:41:27.641Z,101261.03
2022-08-05T14:44:09.728Z,101273.56
2022-08-05T14:46:48.814Z,101263.94
2022-08-05T14:49:18.643Z,101269.31
2022-08-05T14:51:52.208Z,101269.66
2022-08-05T14:54:28.479Z,101265.31
2022-08-05T14:57:05.124Z,101261.78
2022-08-05T14:59:40.381Z,101221.53
2022-08-05T15:02:15.748Z,101234.97
2022-08-05T15:04:47.795Z,101268.78
2022-08-05T15:08:11.432Z,101270.44
2022-08-05T15:10:13.946Z,101266.72
2022-08-05T15:13:00.350Z,101276.78
2022-08-05T15:15:54.127Z,101277.41
2022-08-05T15:18:25.098Z,101267.59
2022-08-05T15:20:54.753Z,101274.59
2022-08-05T15:23:27.044Z,101273.44
2022-08-05T15:26:01.008Z,101258.00
2022-08-05T15:28:32.777Z,101265.25
2022-08-05T15:31:03.618Z,101268.53
2022-08-05T15:34:05.867Z,101269.44
2022-08-05T15:36:26.204Z,101265.13
2022-08-05T15:40:58.793Z,101244.50
2022-08-05T15:41:55.698Z,101245.16
2022-08-05T15:44:27.602Z,101274.22
2022-08-05T15:46:57.968Z,101271.59
2022-08-05T15:49:48.298Z,101272.50
2022-08-05T15:52:53.737Z,101258.41
2022-08-05T15:55:16.616Z,101281.09
2022-08-05T15:57:49.035Z,101280.47
2022-08-05T16:00:26.443Z,101265.91
2022-08-05T16:03:02.718Z,101266.94
2022-08-05T16:05:32.984Z,101276.31
2022-08-05T16:08:03.706Z,101270.94
2022-08-05T16:10:37.479Z,101271.78
2022-08-05T16:13:11.347Z,101282.06
2022-08-05T16:15:41.128Z,101245.94
2022-08-05T16:18:12.389Z,101277.72
2022-08-05T16:20:44.133Z,101284.94
2022-08-05T16:23:16.799Z,101247.81
2022-08-05T16:25:49.913Z,101291.19
2022-08-05T16:28:26.802Z,101299.56
2022-08-05T16:30:58.647Z,101294.75
2022-08-05T16:33:32.144Z,101300.16
2022-08-05T16:36:13.145Z,101303.72
2022-08-05T16:38:55.005Z,101307.44
2022-08-05T16:42:27.781Z,101305.44
2022-08-05T16:44:21.113Z,101308.78
2022-08-05T16:46:56.337Z,101320.13
2022-08-05T16:49:26.601Z,101320.44
2022-08-05T16:51:59.035Z,101322.28
2022-08-05T16:54:32.880Z,101324.28
2022-08-05T16:57:14.873Z,101327.59
2022-08-05T17:00:02.951Z,101335.31
2022-08-05T17:02:38.470Z,101326.94
2022-08-05T17:05:09.618Z,101348.75
2022-08-05T17:07:44.380Z,101354.84
2022-08-05T17:10:26.494Z,101352.38
2022-08-05T17:13:02.823Z,101333.56
2022-08-05T17:15:47.826Z,101354.19
2022-08-05T17:18:19.168Z,101311.25
2022-08-05T17:20:50.576Z,101353.25
2022-08-05T17:24:05.229Z,101340.53
2022-08-05T17:26:10.132Z,101362.13
2022-08-05T17:28:44.112Z,101362.19
2022-08-05T17:31:24.632Z,101379.50
2022-08-05T17:34:06.912Z,101386.53
2022-08-05T17:36:40.452Z,101397.75
2022-08-05T17:39:24.494Z,101370.31
2022-08-05T17:42:17.825Z,101391.84
2022-08-05T17:44:53.866Z,101394.53
2022-08-05T17:47:23.794Z,101407.41
2022-08-05T17:50:03.650Z,101420.34
2022-08-05T17:52:34.995Z,101398.88
2022-08-05T17:55:27.208Z,101413.63
2022-08-05T17:58:05.650Z,101437.94
2022-08-05T18:00:40.911Z,101414.69
2022-08-05T18:03:56.525Z,101431.94
2022-08-05T18:06:11.863Z,101425.22
2022-08-05T18:08:52.223Z,101454.50
2022-08-05T18:11:32.873Z,101457.94
2022-08-05T18:14:07.290Z,101451.13
2022-08-05T18:16:51.293Z,101461.56
2022-08-05T18:19:22.644Z,101441.94
2022-08-05T18:22:08.226Z,101468.69
2022-08-05T18:24:41.223Z,101463.53
2022-08-05T18:27:12.325Z,101460.84
2022-08-05T18:29:42.591Z,101482.34
2022-08-05T18:32:28.353Z,101479.72
2022-08-05T18:35:01.379Z,101467.78
2022-08-05T18:37:34.592Z,101488.44
2022-08-05T18:41:53.167Z,101503.13
2022-08-05T18:43:03.857Z,101482.41
2022-08-05T18:45:41.661Z,101475.63
2022-08-05T18:48:30.906Z,101496.28
2022-08-05T18:52:04.747Z,101509.22
2022-08-05T18:54:09.728Z,101518.78
2022-08-05T18:56:39.525Z,101505.78
2022-08-05T18:59:41.858Z,101517.88
2022-08-05T19:01:59.264Z,101522.25
2022-08-05T19:04:37.457Z,101534.34
2022-08-05T19:07:46.275Z,101537.84
2022-08-05T19:10:18.949Z,101536.97
2022-08-05T19:12:59.143Z,101539.66
2022-08-05T19:15:57.036Z,101549.13
2022-08-05T19:18:22.907Z,101546.59
2022-08-05T19:20:56.538Z,101550.94
2022-08-05T19:24:07.299Z,101562.97
2022-08-05T19:26:22.485Z,101565.59
2022-08-05T19:28:57.893Z,101562.16
2022-08-05T19:31:30.825Z,101556.94
2022-08-05T19:34:14.585Z,101579.44
2022-08-05T19:36:51.307Z,101582.84
2022-08-05T19:39:21.664Z,101585.47
2022-08-05T19:42:07.671Z,101582.00
2022-08-05T19:44:45.030Z,101594.94
2022-08-05T19:47:16.649Z,101577.72
2022-08-05T19:49:48.260Z,101600.13
2022-08-05T19:52:31.043Z,101608.78
2022-08-05T19:55:06.831Z,101557.03
2022-08-05T19:58:06.734Z,101607.06
2022-08-05T20:00:50.694Z,101613.97
2022-08-05T20:03:24.031Z,101601.00
2022-08-05T20:05:56.804Z,101627.75
2022-08-05T20:08:31.316Z,101614.84
2022-08-05T20:11:02.362Z,101622.59
2022-08-05T20:13:58.291Z,101632.91
2022-08-05T20:16:23.312Z,101624.31
2022-08-05T20:18:55.223Z,101632.06
2022-08-05T20:21:27.848Z,101620.84
2022-08-05T20:24:06.680Z,101636.38
2022-08-05T20:26:36.349Z,101650.16
2022-08-05T20:29:07.783Z,101649.28
2022-08-05T20:31:59.646Z,101637.22
2022-08-05T20:34:29.851Z,101663.09
2022-08-05T20:37:01.827Z,101661.34
2022-08-05T20:39:36.374Z,101663.06
2022-08-05T20:42:08.299Z,101644.94
2022-08-05T20:44:41.531Z,101657.00
2022-08-05T20:47:11.326Z,101681.13
2022-08-05T20:49:41.096Z,101680.28
2022-08-05T20:52:12.361Z,101677.66
2022-08-05T20:55:15.988Z,101667.28
2022-08-05T20:57:44.107Z,101685.38
2022-08-05T21:00:40.030Z,101687.09
2022-08-05T21:03:08.839Z,101701.72
2022-08-05T21:05:54.412Z,101700.00
2022-08-05T21:08:26.669Z,101700.84
2022-08-05T21:11:10.315Z,101714.63
2022-08-05T21:13:47.500Z,101697.34
2022-08-05T21:16:30.153Z,101701.63
2022-08-05T21:19:01.521Z,101691.19
2022-08-05T21:21:39.078Z,101717.97
2022-08-05T21:24:12.748Z,101718.81
2022-08-05T21:26:57.983Z,101716.22
2022-08-05T21:29:31.865Z,101715.31
2022-08-05T21:32:03.091Z,101716.16
2022-08-05T21:34:35.641Z,101714.44
2022-08-05T21:37:08.226Z,101683.28
2022-08-05T21:39:40.751Z,101721.22
2022-08-05T21:42:43.802Z,101726.38
2022-08-05T21:45:03.520Z,101726.16
2022-08-05T21:47:56.348Z,101726.16
2022-08-05T21:50:26.331Z,101716.53
2022-08-05T21:52:58.819Z,101722.66
2022-08-05T21:56:01.175Z,101713.06
2022-08-05T21:58:24.888Z,101713.91
2022-08-05T22:01:02.311Z,101708.63
2022-08-05T22:03:48.588Z,101719.91
2022-08-05T22:06:36.976Z,101727.66
2022-08-05T22:09:14.025Z,101718.94
2022-08-05T22:11:46.932Z,101702.56
2022-08-05T22:14:34.667Z,101721.56
2022-08-05T22:17:07.623Z,101734.28
2022-08-05T22:20:00.696Z,101739.47
2022-08-05T22:22:29.591Z,101738.50
2022-08-05T22:25:17.807Z,101750.56
2022-08-05T22:28:09.183Z,101739.22
2022-08-05T22:30:56.693Z,101747.00
2022-08-05T22:33:58.605Z,101757.25
2022-08-05T22:36:18.714Z,101768.41
2022-08-05T22:38:49.037Z,101761.56
2022-08-05T22:42:05.401Z,101758.09
2022-08-05T22:44:11.985Z,101756.28
2022-08-05T22:46:45.182Z,101753.63
2022-08-05T22:49:45.973Z,101758.63
2022-08-05T22:52:12.529Z,101767.16
2022-08-05T22:54:50.882Z,101754.06
2022-08-05T22:57:20.576Z,101761.78
2022-08-05T22:59:53.834Z,101784.22
2022-08-05T23:02:29.363Z,101779.13
2022-08-05T23:05:02.039Z,101780.75
2022-08-05T23:07:44.709Z,101782.41
2022-08-05T23:10:19.601Z,101783.19
2022-08-05T23:12:51.629Z,101764.97
2022-08-05T23:15:26.695Z,101781.41
2022-08-05T23:18:00.970Z,101766.56
2022-08-05T23:20:33.041Z,101787.31
2022-08-05T23:23:06.020Z,101790.69
2022-08-05T23:25:52.569Z,101794.88
2022-08-05T23:28:28.685Z,101773.78
2022-08-05T23:31:07.042Z,101767.72
2022-08-05T23:34:03.805Z,101800.66
2022-08-05T23:36:39.530Z,101775.34
2022-08-05T23:39:17.500Z,101798.00
2022-08-05T23:41:53.930Z,101802.22
2022-08-05T23:44:28.010Z,101802.09
2022-08-05T23:47:02.660Z,101819.34
2022-08-05T23:49:47.465Z,101813.28
2022-08-05T23:52:32.395Z,101813.88
2022-08-05T23:55:09.229Z,101823.34
2022-08-05T23:57:40.635Z,101814.50
